createdAt,value
2022-08-05T00:01:27.981Z,26.20
2022-08-05T00:03:57.189Z,26.10
2022-08-05T00:06:32.178Z,26.00
2022-08-05T00:09:00.523Z,26.00
2022-08-05T00:11:34.682Z,26.00
2022-08-05T00:14:12.870Z,26.00
2022-08-05T00:16:53.717Z,25.90
2022-08-05T00:19:21.597Z,25.90
2022-08-05T00:21:49.317Z,25.90
2022-08-05T00:24:19.149Z,25.90
2022-08-05T00:26:51.775Z,25.90
2022-08-05T00:29:19.395Z,25.90
2022-08-05T00:31:54.332Z,25.90
2022-08-05T00:34:56.562Z,25.90
2022-08-05T00:37:25.058Z,25.90
2022-08-05T00:39:57.815Z,25.80
2022-08-05T00:42:32.712Z,25.80
2022-08-05T00:45:00.169Z,25.70
2022-08-05T00:47:31.753Z,25.60
2022-08-05T00:50:15.713Z,25.50
2022-08-05T00:52:45.496Z,25.40
2022-08-05T00:55:13.735Z,25.30
2022-08-05T00:57:57.933Z,25.20
2022-08-05T01:00:26.743Z,25.20
2022-08-05T01:02:55.276Z,25.20
2022-08-05T01:05:23.217Z,25.20
2022-08-05T01:08:40.068Z,25.20
2022-08-05T01:10:41.424Z,25.20
2022-08-05T01:13:27.164Z,25.20
2022-08-05T01:16:00.022Z,25.20
2022-08-05T01:18:34.031Z,25.20
2022-08-05T01:21:12.051Z,25.20
2022-08-05T01:23:57.849Z,25.20
2022-08-05T01:26:35.468Z,25.30
2022-08-05T01:29:05.703Z,25.30
2022-08-05T01:31:44.793Z,25.30
2022-08-05T01:34:16.593Z,25.30
2022-08-05T01:36:49.156Z,25.40
2022-08-05T01:39:46.224Z,25.40
2022-08-05T01:42:06.626Z,25.40
2022-08-05T01:44:39.335Z,25.40
2022-08-05T01:47:09.628Z,25.40
2022-08-05T01:50:00.372Z,25.30
2022-08-05T01:52:27.894Z,25.30
2022-08-05T01:54:58.598Z,25.30
2022-08-05T01:58:29.403Z,25.30
2022-08-05T02:00:19.359Z,25.30
2022-08-05T02:02:54.421Z,25.20
2022-08-05T02:05:25.538Z,25.20
2022-08-05T02:08:00.352Z,25.20
2022-08-05T02:10:34.755Z,25.20
2022-08-05T02:13:15.820Z,25.20
2022-08-05T02:15:49.676Z,25.20
2022-08-05T02:18:31.515Z,25.20
2022-08-05T02:21:05.787Z,25.20
2022-08-05T02:23:44.844Z,25.20
2022-08-05T02:26:17.076Z,25.10
2022-08-05T02:28:46.341Z,25.10
2022-08-05T02:31:21.810Z,25.00
2022-08-05T02:33:57.251Z,25.00
2022-08-05T02:36:27.281Z,25.00
2022-08-05T02:38:57.530Z,25.00
2022-08-05T02:41:28.720Z,24.90
2022-08-05T02:44:13.379Z,24.90
2022-08-05T02:46:58.902Z,24.90
2022-08-05T02:49:36.998Z,24.90
2022-08-05T02:52:07.940Z,24.90
2022-08-05T02:54:41.046Z,24.90
2022-08-05T02:58:10.221Z,24.90
2022-08-05T02:59:59.353Z,24.90
2022-08-05T03:02:31.554Z,24.90
2022-08-05T03:04:59.722Z,24.90
2022-08-05T03:08:01.111Z,24.80
2022-08-05T03:10:22.127Z,24.80
2022-08-05T03:12:54.037Z,24.80
2022-08-05T03:15:23.391Z,24.80
2022-08-05T03:17:54.150Z,24.80
2022-08-05T03:20:23.686Z,24.80
2022-08-05T03:22:52.179Z,24.70
2022-08-05T03:26:03.498Z,24.70
2022-08-05T03:28:08.758Z,24.60
2022-08-05T03:30:36.707Z,24.60
2022-08-05T03:33:07.330Z,24.60
2022-08-05T03:35:40.823Z,24.50
2022-08-05T03:38:10.800Z,24.50
2022-08-05T03:40:40.604Z,24.50
2022-08-05T03:43:59.273Z,24.40
2022-08-05T03:45:57.694Z,24.40
2022-08-05T03:48:27.542Z,24.40
2022-08-05T03:52:34.777Z,24.30
2022-08-05T03:55:49.827Z,24.30
2022-08-05T03:56:44.392Z,24.30
2022-08-05T03:59:20.436Z,24.30
2022-08-05T04:01:50.841Z,24.20
2022-08-05T04:04:21.581Z,24.20
2022-08-05T04:06:51.277Z,24.20
2022-08-05T04:09:20.216Z,24.10
2022-08-05T04:11:53.020Z,24.10
2022-08-05T04:14:30.280Z,24.00
2022-08-05T04:16:59.661Z,23.90
2022-08-05T04:19:28.581Z,23.90
2022-08-05T04:22:08.601Z,23.80
2022-08-05T04:24:44.006Z,23.80
2022-08-05T04:27:12.316Z,23.70
2022-08-05T04:29:39.432Z,23.70
2022-08-05T04:32:07.804Z,23.70
2022-08-05T04:34:42.660Z,23.60
2022-08-05T04:37:10.255Z,23.60
2022-08-05T04:39:37.851Z,23.60
2022-08-05T04:42:06.867Z,23.60
2022-08-05T04:44:33.728Z,23.60
2022-08-05T04:47:08.968Z,23.60
2022-08-05T04:50:06.510Z,23.60
2022-08-05T04:52:27.367Z,23.50
2022-08-05T04:54:57.391Z,23.50
2022-08-05T04:57:29.164Z,23.50
2022-08-05T04:59:58.513Z,23.50
2022-08-05T05:02:37.630Z,23.40
2022-08-05T05:05:26.220Z,23.40
2022-08-05T05:08:01.582Z,23.20
2022-08-05T05:10:29.733Z,23.10
2022-08-05T05:12:56.859Z,23.00
2022-08-05T05:16:01.902Z,23.00
2022-08-05T05:18:14.521Z,23.00
2022-08-05T05:20:46.068Z,23.00
2022-08-05T05:23:19.988Z,23.00
2022-08-05T05:25:47.880Z,23.10
2022-08-05T05:28:14.878Z,23.10
2022-08-05T05:30:42.704Z,23.20
2022-08-05T05:33:17.557Z,23.20
2022-08-05T05:35:51.880Z,23.30
2022-08-05T05:38:22.584Z,23.30
2022-08-05T05:40:54.746Z,23.30
2022-08-05T05:43:56.465Z,23.40
2022-08-05T05:46:16.084Z,23.50
2022-08-05T05:48:46.009Z,23.50
2022-08-05T05:51:20.513Z,23.60
2022-08-05T05:53:57.205Z,23.70
2022-08-05T05:56:26.002Z,23.70
2022-08-05T05:59:03.301Z,23.80
2022-08-05T06:01:38.061Z,23.90
2022-08-05T06:04:06.974Z,24.00
2022-08-05T06:06:35.784Z,24.10
2022-08-05T06:09:03.997Z,24.20
2022-08-05T06:11:31.557Z,24.30
2022-08-05T06:14:00.362Z,24.30
2022-08-05T06:16:32.704Z,24.40
2022-08-05T06:19:05.478Z,24.50
2022-08-05T06:21:38.406Z,24.50
2022-08-05T06:24:11.981Z,24.60
2022-08-05T06:26:40.094Z,24.70
2022-08-05T06:29:25.329Z,24.80
2022-08-05T06:32:06.350Z,24.90
2022-08-05T06:34:53.491Z,24.90
2022-08-05T06:37:39.423Z,24.90
2022-08-05T06:40:14.037Z,24.90
2022-08-05T06:42:45.763Z,25.00
2022-08-05T06:45:21.075Z,25.00
2022-08-05T06:48:36.959Z,25.10
2022-08-05T06:50:47.285Z,25.20
2022-08-05T06:53:22.516Z,25.20
2022-08-05T06:55:55.107Z,25.20
2022-08-05T06:58:30.116Z,25.30
2022-08-05T07:01:05.870Z,25.30
2022-08-05T07:03:33.529Z,25.40
2022-08-05T07:06:05.649Z,25.50
2022-08-05T07:08:43.045Z,25.50
2022-08-05T07:11:15.020Z,25.60
2022-08-05T07:14:01.706Z,25.70
2022-08-05T07:17:56.964Z,25.80
2022-08-05T07:22:28.699Z,25.90
2022-08-05T07:24:59.343Z,26.00
2022-08-05T07:27:27.319Z,26.10
2022-08-05T07:30:22.082Z,26.10
2022-08-05T07:32:53.447Z,26.20
2022-08-05T07:36:02.710Z,26.30
2022-08-05T07:38:07.453Z,26.40
2022-08-05T07:40:44.495Z,26.40
2022-08-05T07:43:14.787Z,26.50
2022-08-05T07:45:57.285Z,26.50
2022-08-05T07:49:04.155Z,26.60
2022-08-05T07:51:23.644Z,26.70
2022-08-05T07:53:59.459Z,26.70
2022-08-05T07:57:02.612Z,26.80
2022-08-05T07:59:17.191Z,26.90
2022-08-05T08:01:52.084Z,27.00
2022-08-05T08:04:37.619Z,27.10
2022-08-05T08:07:07.077Z,27.10
2022-08-05T08:09:34.823Z,27.30
2022-08-05T08:12:10.646Z,27.30
2022-08-05T08:14:38.353Z,27.40
2022-08-05T08:17:16.007Z,27.40
2022-08-05T08:20:23.031Z,27.50
2022-08-05T08:22:32.313Z,27.50
2022-08-05T08:25:03.219Z,27.60
2022-08-05T08:27:40.291Z,27.70
2022-08-05T08:30:29.953Z,27.90
2022-08-05T08:33:02.603Z,28.00
2022-08-05T08:35:41.358Z,28.10
2022-08-05T08:38:11.722Z,28.10
2022-08-05T08:40:50.431Z,28.10
2022-08-05T08:45:16.431Z,28.20
2022-08-05T08:46:10.050Z,28.10
2022-08-05T08:49:04.175Z,28.20
2022-08-05T08:52:03.574Z,28.20
2022-08-05T08:54:27.247Z,28.40
2022-08-05T08:56:56.520Z,28.50
2022-08-05T08:59:27.584Z,28.70
2022-08-05T09:02:01.074Z,28.80
2022-08-05T09:04:30.548Z,29.10
2022-08-05T09:06:58.503Z,29.20
2022-08-05T09:09:32.456Z,29.40
2022-08-05T09:12:19.792Z,29.60
2022-08-05T09:14:57.115Z,29.90
2022-08-05T09:17:40.758Z,30.00
2022-08-05T09:20:10.042Z,30.10
2022-08-05T09:23:18.451Z,30.00
2022-08-05T09:26:00.154Z,30.00
2022-08-05T09:28:32.329Z,30.10
2022-08-05T09:31:22.890Z,30.10
2022-08-05T09:33:53.753Z,30.20
2022-08-05T09:36:20.975Z,30.30
2022-08-05T09:38:58.530Z,30.40
2022-08-05T09:41:25.883Z,30.50
2022-08-05T09:43:52.791Z,30.70
2022-08-05T09:46:28.699Z,30.90
2022-08-05T09:49:08.178Z,31.10
2022-08-05T09:51:43.876Z,31.40
2022-08-05T09:54:15.959Z,31.70
2022-08-05T09:56:52.334Z,32.50
2022-08-05T09:59:24.312Z,33.80
2022-08-05T10:01:58.203Z,34.70
2022-08-05T10:04:35.795Z,35.00
2022-08-05T10:07:19.608Z,35.20
2022-08-05T10:10:04.299Z,35.10
2022-08-05T10:12:49.725Z,35.50
2022-08-05T10:15:26.049Z,36.20
2022-08-05T10:18:09.533Z,36.90
2022-08-05T10:20:39.855Z,37.50
2022-08-05T10:23:08.955Z,38.20
2022-08-05T10:25:55.815Z,38.60
2022-08-05T10:28:29.109Z,39.20
2022-08-05T10:33:01.286Z,39.70
2022-08-05T10:33:52.265Z,40.10
2022-08-05T10:36:23.645Z,40.20
2022-08-05T10:38:59.090Z,40.10
2022-08-05T10:41:45.185Z,39.80
2022-08-05T10:44:18.194Z,39.90
2022-08-05T10:46:46.691Z,39.90
2022-08-05T10:49:27.178Z,39.80
2022-08-05T10:52:03.347Z,39.70
2022-08-05T10:54:56.379Z,39.70
2022-08-05T10:57:30.834Z,39.70
2022-08-05T11:00:18.217Z,39.70
2022-08-05T11:03:25.703Z,40.00
2022-08-05T11:06:08.544Z,40.30
2022-08-05T11:09:13.052Z,40.60
2022-08-05T11:11:52.267Z,40.70
2022-08-05T11:14:49.337Z,40.50
2022-08-05T11:17:57.640Z,40.50
2022-08-05T11:20:43.833Z,40.40
2022-08-05T11:24:04.359Z,40.30
2022-08-05T11:26:28.953Z,40.20
2022-08-05T11:29:06.675Z,39.80
2022-08-05T11:31:56.446Z,39.70
2022-08-05T11:34:37.524Z,39.50
2022-08-05T11:37:06.206Z,39.30
2022-08-05T11:40:00.224Z,38.90
2022-08-05T11:42:32.943Z,38.90
2022-08-05T11:45:14.259Z,39.10
2022-08-05T11:47:54.671Z,39.50
2022-08-05T11:50:22.227Z,39.80
2022-08-05T11:52:52.082Z,40.10
2022-08-05T11:55:22.948Z,40.20
2022-08-05T11:58:09.298Z,40.30
2022-08-05T12:00:41.326Z,40.40
2022-08-05T12:03:29.349Z,40.40
2022-08-05T12:06:06.093Z,40.40
2022-08-05T12:08:39.490Z,40.30
2022-08-05T12:11:21.040Z,40.20
2022-08-05T12:13:55.366Z,40.50
2022-08-05T12:16:28.120Z,40.60
2022-08-05T12:18:56.038Z,40.60
2022-08-05T12:21:26.773Z,40.70
2022-08-05T12:24:04.531Z,40.70
2022-08-05T12:26:35.514Z,40.80
2022-08-05T12:29:03.775Z,41.20
2022-08-05T12:31:46.135Z,40.90
2022-08-05T12:34:21.141Z,40.50
2022-08-05T12:36:50.074Z,40.10
2022-08-05T12:39:17.718Z,40.00
2022-08-05T12:41:46.548Z,40.00
2022-08-05T12:44:32.786Z,40.10
2022-08-05T12:47:02.246Z,40.10
2022-08-05T12:50:04.719Z,39.90
2022-08-05T12:52:33.908Z,39.90
2022-08-05T12:55:18.049Z,39.80
2022-08-05T12:58:38.971Z,39.90
2022-08-05T13:02:01.885Z,40.00
2022-08-05T13:03:32.235Z,39.60
2022-08-05T13:06:00.057Z,39.40
2022-08-05T13:08:29.542Z,39.40
2022-08-05T13:11:00.129Z,39.50
2022-08-05T13:14:04.963Z,39.80
2022-08-05T13:16:17.285Z,39.90
2022-08-05T13:18:51.596Z,40.10
2022-08-05T13:21:18.436Z,40.20
2022-08-05T13:23:50.777Z,40.20
2022-08-05T13:26:21.803Z,40.00
2022-08-05T13:28:59.344Z,39.80
2022-08-05T13:32:03.064Z,39.50
2022-08-05T13:34:22.810Z,39.50
2022-08-05T13:36:52.677Z,39.50
2022-08-05T13:40:13.140Z,39.70
2022-08-05T13:42:07.478Z,39.70
2022-08-05T13:44:45.379Z,39.70
2022-08-05T13:47:36.078Z,39.80
2022-08-05T13:49:59.565Z,39.30
2022-08-05T13:52:29.056Z,38.90
2022-08-05T13:54:57.087Z,38.80
2022-08-05T13:57:26.588Z,38.90
2022-08-05T14:00:15.093Z,38.90
2022-08-05T14:02:44.427Z,38.90
2022-08-05T14:05:15.458Z,38.70
2022-08-05T14:07:59.721Z,38.40
2022-08-05T14:10:32.941Z,38.00
2022-08-05T14:12:59.952Z,37.50
2022-08-05T14:16:07.848Z,37.00
2022-08-05T14:18:18.080Z,36.60
2022-08-05T14:20:47.094Z,36.30
2022-08-05T14:23:14.981Z,36.10
2022-08-05T14:25:53.993Z,36.00
2022-08-05T14:28:26.755Z,35.80
2022-08-05T14:30:55.801Z,35.70
2022-08-05T14:33:24.189Z,35.50
2022-08-05T14:35:53.984Z,35.40
2022-08-05T14:38:32.625Z,35.30
2022-08-05T14:41:06.114Z,35.10
2022-08-05T14:44:02.361Z,35.00
2022-08-05T14:46:23.470Z,34.80
2022-08-05T14:48:57.259Z,34.70
2022-08-05T14:51:24.381Z,34.60
2022-08-05T14:54:26.903Z,34.40
2022-08-05T14:56:44.359Z,34.30
2022-08-05T14:59:14.621Z,34.10
2022-08-05T15:01:48.143Z,34.00
2022-08-05T15:04:16.435Z,33.90
2022-08-05T15:06:49.378Z,33.90
2022-08-05T15:09:17.185Z,33.80
2022-08-05T15:12:05.336Z,33.60
2022-08-05T15:14:34.804Z,33.70
2022-08-05T15:17:44.971Z,33.90
2022-08-05T15:19:58.331Z,34.10
2022-08-05T15:22:27.136Z,34.20
2022-08-05T15:24:54.856Z,34.10
2022-08-05T15:27:21.882Z,33.90
2022-08-05T15:29:52.760Z,33.50
2022-08-05T15:32:27.516Z,33.00
2022-08-05T15:34:56.150Z,32.60
2022-08-05T15:38:33.439Z,32.50
2022-08-05T15:40:58.547Z,32.60
2022-08-05T15:43:12.854Z,32.70
2022-08-05T15:45:46.214Z,32.90
2022-08-05T15:48:15.282Z,33.00
2022-08-05T15:50:43.904Z,33.10
2022-08-05T15:53:12.964Z,33.20
2022-08-05T15:56:01.964Z,33.20
2022-08-05T15:58:28.503Z,33.10
2022-08-05T16:01:11.594Z,33.20
2022-08-05T16:03:44.353Z,33.10
2022-08-05T16:06:15.489Z,33.00
2022-08-05T16:08:47.623Z,33.00
2022-08-05T16:11:14.481Z,32.90
2022-08-05T16:13:41.878Z,32.80
2022-08-05T16:16:10.802Z,32.70
2022-08-05T16:18:52.805Z,32.50
2022-08-05T16:21:59.967Z,32.40
2022-08-05T16:24:20.592Z,32.30
2022-08-05T16:26:57.798Z,32.20
2022-08-05T16:29:26.543Z,32.10
2022-08-05T16:31:56.174Z,32.00
2022-08-05T16:34:26.486Z,31.90
2022-08-05T16:36:55.377Z,31.70
2022-08-05T16:39:22.859Z,31.50
2022-08-05T16:42:15.414Z,31.30
2022-08-05T16:44:44.681Z,31.20
2022-08-05T16:47:28.695Z,31.00
2022-08-05T16:50:03.617Z,30.70
2022-08-05T16:52:33.520Z,30.60
2022-08-05T16:55:01.105Z,30.70
2022-08-05T16:57:53.302Z,30.70
2022-08-05T17:00:26.164Z,30.60
2022-08-05T17:03:02.355Z,30.60
2022-08-05T17:05:31.139Z,30.30
2022-08-05T17:07:59.507Z,30.20
2022-08-05T17:10:30.565Z,30.10
2022-08-05T17:12:58.128Z,30.00
2022-08-05T17:15:47.979Z,30.00
2022-08-05T17:18:14.286Z,30.00
2022-08-05T17:20:42.461Z,29.90
2022-08-05T17:24:03.270Z,29.90
2022-08-05T17:25:59.476Z,29.80
2022-08-05T17:28:26.427Z,29.80
2022-08-05T17:30:55.850Z,29.70
2022-08-05T17:33:23.137Z,29.60
2022-08-05T17:36:08.918Z,29.50
2022-08-05T17:38:39.793Z,29.40
2022-08-05T17:41:07.194Z,29.30
2022-08-05T17:43:53.380Z,29.30
2022-08-05T17:46:21.347Z,29.20
2022-08-05T17:48:48.361Z,29.10
2022-08-05T17:51:21.466Z,29.10
2022-08-05T17:53:50.838Z,29.00
2022-08-05T17:56:22.583Z,28.90
2022-08-05T17:58:49.968Z,28.70
2022-08-05T18:01:18.234Z,28.60
2022-08-05T18:03:59.023Z,28.60
2022-08-05T18:06:31.421Z,28.50
2022-08-05T18:09:03.770Z,28.50
2022-08-05T18:11:33.528Z,28.40
2022-08-05T18:14:03.637Z,28.30
2022-08-05T18:16:31.818Z,28.20
2022-08-05T18:18:58.722Z,28.20
2022-08-05T18:21:26.043Z,28.20
2022-08-05T18:23:54.350Z,28.20
2022-08-05T18:26:29.122Z,28.20
2022-08-05T18:28:57.104Z,28.10
2022-08-05T18:31:25.223Z,28.00
2022-08-05T18:33:52.273Z,27.90
2022-08-05T18:36:19.456Z,27.70
2022-08-05T18:38:46.765Z,27.60
2022-08-05T18:41:56.291Z,27.50
2022-08-05T18:44:06.185Z,27.40
2022-08-05T18:46:34.828Z,27.30
2022-08-05T18:49:22.849Z,27.20
2022-08-05T18:52:16.317Z,27.10
2022-08-05T18:54:45.808Z,27.00
2022-08-05T18:57:15.396Z,26.90
2022-08-05T19:00:01.644Z,26.80
2022-08-05T19:02:30.861Z,26.80
2022-08-05T19:05:02.707Z,26.70
2022-08-05T19:07:48.157Z,26.60
2022-08-05T19:10:15.403Z,26.50
2022-08-05T19:12:43.232Z,26.40
2022-08-05T19:15:57.059Z,26.30
2022-08-05T19:18:09.465Z,26.20
2022-08-05T19:20:41.643Z,26.20
2022-08-05T19:24:03.588Z,26.00
2022-08-05T19:26:02.094Z,25.90
2022-08-05T19:28:30.038Z,25.90
2022-08-05T19:30:59.091Z,25.80
2022-08-05T19:33:35.461Z,25.80
2022-08-05T19:36:06.447Z,25.70
2022-08-05T19:38:33.984Z,25.70
2022-08-05T19:41:02.874Z,25.70
2022-08-05T19:44:05.326Z,25.60
2022-08-05T19:46:30.295Z,25.40
2022-08-05T19:49:01.127Z,25.30
2022-08-05T19:52:04.187Z,25.30
2022-08-05T19:54:27.254Z,25.20
2022-08-05T19:56:58.848Z,25.10
2022-08-05T19:59:56.320Z,25.10
2022-08-05T20:02:17.578Z,25.10
2022-08-05T20:04:50.200Z,25.10
2022-08-05T20:07:46.689Z,25.00
2022-08-05T20:10:11.493Z,25.00
2022-08-05T20:12:48.371Z,24.90
2022-08-05T20:15:48.663Z,24.70
2022-08-05T20:18:10.906Z,24.70
2022-08-05T20:20:55.021Z,24.60
2022-08-05T20:23:23.580Z,24.50
2022-08-05T20:25:52.244Z,24.40
2022-08-05T20:28:20.387Z,24.40
2022-08-05T20:30:49.474Z,24.30
2022-08-05T20:33:17.714Z,24.20
2022-08-05T20:35:48.379Z,24.10
2022-08-05T20:38:22.790Z,23.90
2022-08-05T20:40:56.311Z,23.80
2022-08-05T20:43:57.368Z,23.80
2022-08-05T20:46:12.449Z,23.70
2022-08-05T20:48:51.047Z,23.70
2022-08-05T20:51:18.239Z,23.60
2022-08-05T20:53:56.398Z,23.40
2022-08-05T20:56:28.835Z,23.40
2022-08-05T20:59:00.149Z,23.30
2022-08-05T21:01:41.506Z,23.20
2022-08-05T21:04:12.510Z,23.20
2022-08-05T21:06:45.174Z,23.20
2022-08-05T21:09:14.132Z,23.10
2022-08-05T21:12:06.953Z,23.00
2022-08-05T21:14:28.673Z,22.90
2022-08-05T21:17:01.705Z,22.90
2022-08-05T21:19:47.582Z,22.90
2022-08-05T21:22:18.614Z,22.80
2022-08-05T21:24:51.709Z,22.80
2022-08-05T21:27:20.628Z,22.70
2022-08-05T21:29:54.218Z,22.70
2022-08-05T21:32:23.364Z,22.70
2022-08-05T21:35:08.237Z,22.70
2022-08-05T21:37:41.429Z,22.70
2022-08-05T21:40:13.653Z,22.60
2022-08-05T21:42:44.108Z,22.60
2022-08-05T21:45:24.831Z,22.70
2022-08-05T21:48:02.057Z,22.60
2022-08-05T21:50:34.902Z,22.50
2022-08-05T21:53:16.153Z,22.40
2022-08-05T21:56:09.420Z,22.30
2022-08-05T21:58:32.483Z,22.30
2022-08-05T22:00:59.832Z,22.30
2022-08-05T22:03:48.849Z,22.20
2022-08-05T22:06:15.874Z,22.20
2022-08-05T22:08:51.776Z,22.20
2022-08-05T22:11:19.447Z,22.20
2022-08-05T22:14:32.486Z,22.20
2022-08-05T22:16:51.869Z,22.20
2022-08-05T22:20:00.697Z,22.20
2022-08-05T22:22:12.186Z,22.20
2022-08-05T22:24:58.007Z,22.20
2022-08-05T22:28:08.609Z,22.20
2022-08-05T22:30:56.154Z,22.10
2022-08-05T22:33:56.593Z,22.00
2022-08-05T22:36:14.648Z,22.00
2022-08-05T22:38:48.746Z,22.00
2022-08-05T22:42:05.471Z,22.00
2022-08-05T22:44:04.095Z,22.00
2022-08-05T22:46:31.334Z,21.90
2022-08-05T22:48:59.414Z,21.90
2022-08-05T22:51:29.976Z,21.90
2022-08-05T22:54:14.501Z,21.90
2022-08-05T22:56:41.422Z,21.80
2022-08-05T22:59:44.157Z,21.80
2022-08-05T23:02:05.858Z,21.80
2022-08-05T23:04:34.798Z,21.70
2022-08-05T23:07:01.704Z,21.70
2022-08-05T23:09:58.376Z,21.70
2022-08-05T23:12:23.800Z,21.70
2022-08-05T23:14:51.163Z,21.60
2022-08-05T23:17:32.651Z,21.60
2022-08-05T23:20:10.546Z,21.60
2022-08-05T23:22:44.051Z,21.60
2022-08-05T23:25:16.900Z,21.60
2022-08-05T23:27:57.722Z,21.50
2022-08-05T23:30:29.077Z,21.50
2022-08-05T23:32:58.171Z,21.50
2022-08-05T23:35:28.439Z,21.40
2022-08-05T23:38:01.133Z,21.30
2022-08-05T23:40:29.402Z,21.30
2022-08-05T23:42:56.291Z,21.30
2022-08-05T23:45:23.697Z,21.30
2022-08-05T23:47:52.043Z,21.20
2022-08-05T23:50:20.876Z,21.20
2022-08-05T23:52:50.622Z,21.20
2022-08-05T23:55:19.054Z,21.20
2022-08-05T23:57:48.725Z,21.20
